KSEG/SEG METAR and TAF weather

Enter ICAO airport designator
Station Type Date Time Source
KSEG METAR 2020/07/14 05:53 UTC NOAA

KSEG 140553Z AUTO 00000KT 10SM CLR 17/15 A2996 RMK AO2 SLP141 T01720150 10250 20167 51009


Station Type Date Time Source
KSEG Decoded METAR 2020/07/14 05:53 UTC NOAA

SELINSGROVE PENN VALLEY AIRPORT , PA, United States (KSEG) 40-49N 076-52W 134M
Jul 14, 2020 - 01:53 AM EDT / 2020.07.14 0553 UTC
Wind: Calm:0
Visibility: 10 mile(s):0
Sky conditions: clear
Temperature: 63.0 F (17.2 C)
Dew Point: 59.0 F (15.0 C)
Relative Humidity: 86%
Pressure (altimeter): 29.96 in. Hg (1014 hPa)
Pressure tendency: 0.03 inches (0.9 hPa) higher than three hours ago
ob: KSEG 140553Z AUTO 00000KT 10SM CLR 17/15 A2996 RMK AO2 SLP141 T01720150 10250 20167 51009
cycle: 6

Station Type Date Time Source
KSEG TAF UTC NOAA

Error!

Example: see airport list